createdAt,value
2022-09-03T00:00:49.306Z,75.51
2022-09-03T00:01:49.414Z,75.41
2022-09-03T00:02:49.331Z,75.41
2022-09-03T00:03:49.281Z,75.31
2022-09-03T00:04:49.280Z,75.20
2022-09-03T00:05:49.272Z,75.51
2022-09-03T00:06:49.279Z,75.51
2022-09-03T00:07:49.265Z,75.31
2022-09-03T00:08:49.245Z,75.82
2022-09-03T00:09:49.243Z,75.85
2022-09-03T00:10:49.229Z,76.02
2022-09-03T00:11:49.229Z,76.16
2022-09-03T00:12:49.221Z,76.36
2022-09-03T00:13:49.210Z,75.44
2022-09-03T00:14:49.201Z,76.67
2022-09-03T00:15:49.265Z,76.77
2022-09-03T00:16:49.185Z,76.87
2022-09-03T00:17:49.178Z,76.16
2022-09-03T00:18:49.170Z,76.46
2022-09-03T00:19:49.164Z,76.16
2022-09-03T00:20:49.157Z,76.06
2022-09-03T00:21:49.143Z,76.06
2022-09-03T00:22:49.145Z,76.36
2022-09-03T00:23:49.125Z,76.09
2022-09-03T00:24:49.146Z,76.16
2022-09-03T00:25:49.118Z,75.85
2022-09-03T00:26:49.101Z,76.36
2022-09-03T00:27:49.099Z,76.46
2022-09-03T00:28:49.087Z,76.77
2022-09-03T00:29:49.101Z,76.16
2022-09-03T00:31:48.463Z,76.40
2022-09-03T00:32:48.430Z,76.90
2022-09-03T00:33:48.421Z,76.70
2022-09-03T00:34:49.502Z,76.50
2022-09-03T00:35:49.505Z,76.60
2022-09-03T00:36:49.497Z,76.64
2022-09-03T00:37:49.485Z,76.50
2022-09-03T00:38:49.470Z,76.29
2022-09-03T00:39:49.544Z,76.29
2022-09-03T00:40:49.456Z,76.50
2022-09-03T00:41:50.090Z,76.50
2022-09-03T00:42:49.446Z,76.70
2022-09-03T00:43:49.442Z,76.60
2022-09-03T00:44:49.429Z,76.64
2022-09-03T00:45:49.417Z,77.01
2022-09-03T00:46:49.458Z,77.04
2022-09-03T00:47:49.404Z,76.60
2022-09-03T00:48:49.396Z,77.15
2022-09-03T00:49:49.383Z,77.25
2022-09-03T00:50:49.377Z,77.25
2022-09-03T00:51:49.390Z,77.56
2022-09-03T00:52:49.366Z,77.66
2022-09-03T00:53:49.353Z,78.27
2022-09-03T00:54:49.346Z,78.61
2022-09-03T00:55:49.338Z,78.20
2022-09-03T00:56:49.338Z,78.20
2022-09-03T00:57:49.332Z,77.90
2022-09-03T00:58:49.314Z,78.61
2022-09-03T00:59:49.310Z,78.72
2022-09-03T01:00:49.297Z,78.52
2022-09-03T01:01:49.379Z,78.00
2022-09-03T01:02:49.452Z,77.86
2022-09-03T01:03:49.272Z,77.66
2022-09-03T01:04:49.273Z,77.25
2022-09-03T01:05:49.256Z,76.94
2022-09-03T01:06:49.260Z,76.94
2022-09-03T01:07:49.241Z,77.04
2022-09-03T01:08:49.477Z,77.45
2022-09-03T01:09:49.228Z,77.76
2022-09-03T01:10:49.222Z,78.92
2022-09-03T01:11:49.222Z,78.31
2022-09-03T01:12:49.234Z,78.82
2022-09-03T01:13:49.204Z,78.11
2022-09-03T01:14:50.177Z,78.96
2022-09-03T01:15:49.238Z,78.96
2022-09-03T01:16:49.177Z,79.27
2022-09-03T01:17:49.191Z,79.37
2022-09-03T01:18:49.169Z,79.16
2022-09-03T01:19:49.152Z,79.27
2022-09-03T01:20:49.149Z,78.75
2022-09-03T01:21:49.147Z,79.33
2022-09-03T01:22:49.134Z,79.16
2022-09-03T01:23:49.122Z,79.27
2022-09-03T01:24:49.120Z,79.47
2022-09-03T01:25:49.141Z,79.06
2022-09-03T01:26:49.130Z,79.27
2022-09-03T01:27:49.098Z,79.06
2022-09-03T01:28:49.092Z,79.27
2022-09-03T01:29:49.070Z,79.27
2022-09-03T01:30:49.165Z,79.27
2022-09-03T01:31:49.061Z,79.27
2022-09-03T01:32:49.053Z,79.27
2022-09-03T01:33:49.046Z,79.78
2022-09-03T01:34:49.050Z,79.78
2022-09-03T01:35:49.068Z,79.50
2022-09-03T01:36:49.021Z,79.82
2022-09-03T01:37:49.018Z,79.68
2022-09-03T01:38:49.008Z,79.71
2022-09-03T01:39:49.061Z,79.57
2022-09-03T01:40:49.000Z,79.91
2022-09-03T01:41:48.977Z,79.50
2022-09-03T01:42:48.981Z,80.02
2022-09-03T01:43:48.965Z,79.71
2022-09-03T01:44:49.901Z,80.22
2022-09-03T01:45:51.530Z,80.33
2022-09-03T01:46:49.016Z,80.22
2022-09-03T01:47:48.952Z,80.53
2022-09-03T01:48:48.926Z,80.22
2022-09-03T01:49:48.914Z,80.94
2022-09-03T01:50:48.928Z,80.43
2022-09-03T01:51:48.899Z,80.74
2022-09-03T01:52:48.900Z,80.43
2022-09-03T01:53:48.892Z,80.57
2022-09-03T01:54:48.883Z,80.36
2022-09-03T01:55:48.871Z,80.43
2022-09-03T01:56:48.863Z,80.33
2022-09-03T01:57:48.868Z,80.43
2022-09-03T01:58:48.850Z,80.43
2022-09-03T01:59:48.838Z,80.43
2022-09-03T02:00:48.837Z,80.43
2022-09-03T02:01:48.882Z,80.43
2022-09-03T02:02:48.872Z,80.33
2022-09-03T02:03:48.804Z,80.43
2022-09-03T02:04:48.800Z,80.22
2022-09-03T02:05:48.788Z,80.12
2022-09-03T02:06:48.786Z,80.46
2022-09-03T02:07:48.786Z,80.46
2022-09-03T02:08:48.771Z,80.57
2022-09-03T02:09:48.762Z,80.98
2022-09-03T02:10:48.753Z,80.77
2022-09-03T02:11:48.753Z,81.18
2022-09-03T02:12:48.737Z,81.08
2022-09-03T02:13:48.783Z,81.18
2022-09-03T02:14:48.733Z,81.18
2022-09-03T02:15:48.784Z,81.08
2022-09-03T02:16:48.699Z,81.29
2022-09-03T02:17:48.698Z,81.49
2022-09-03T02:18:48.699Z,81.63
2022-09-03T02:19:48.690Z,81.63
2022-09-03T02:20:48.681Z,81.84
2022-09-03T02:21:48.660Z,81.73
2022-09-03T02:22:48.655Z,81.73
2022-09-03T02:23:48.653Z,81.73
2022-09-03T02:24:48.643Z,82.24
2022-09-03T02:25:48.628Z,82.04
2022-09-03T02:26:48.625Z,81.94
2022-09-03T02:27:48.613Z,82.14
2022-09-03T02:28:49.196Z,82.14
2022-09-03T02:29:48.598Z,82.28
2022-09-03T02:30:48.646Z,82.39
2022-09-03T02:31:48.579Z,82.18
2022-09-03T02:32:48.615Z,82.45
2022-09-03T02:33:48.579Z,82.28
2022-09-03T02:34:48.561Z,82.76
2022-09-03T02:35:48.555Z,82.65
2022-09-03T02:36:48.547Z,82.79
2022-09-03T02:37:48.553Z,82.79
2022-09-03T02:38:48.524Z,82.90
2022-09-03T02:39:48.534Z,82.79
2022-09-03T02:40:48.509Z,82.79
2022-09-03T02:41:48.518Z,82.69
2022-09-03T02:42:48.495Z,82.90
2022-09-03T02:43:48.501Z,82.59
2022-09-03T02:44:48.481Z,83.20
2022-09-03T02:45:48.520Z,83.04
2022-09-03T02:46:48.493Z,83.14
2022-09-03T02:47:48.462Z,83.00
2022-09-03T02:48:48.457Z,83.20
2022-09-03T02:49:48.447Z,83.10
2022-09-03T02:50:48.452Z,83.00
2022-09-03T02:51:48.444Z,83.25
2022-09-03T02:52:48.432Z,83.04
2022-09-03T02:53:48.414Z,83.10
2022-09-03T02:54:48.408Z,83.00
2022-09-03T02:55:48.396Z,83.45
2022-09-03T02:56:48.396Z,83.25
2022-09-03T02:57:48.375Z,83.20
2022-09-03T02:58:49.121Z,83.00
2022-09-03T02:59:48.371Z,83.00
2022-09-03T03:00:48.360Z,82.79
2022-09-03T03:01:48.383Z,82.59
2022-09-03T03:02:48.396Z,82.69
2022-09-03T03:03:48.325Z,82.90
2022-09-03T03:04:48.322Z,83.10
2022-09-03T03:05:48.318Z,83.41
2022-09-03T03:06:48.300Z,83.20
2022-09-03T03:07:48.305Z,82.90
2022-09-03T03:08:48.289Z,83.55
2022-09-03T03:09:48.287Z,83.10
2022-09-03T03:10:48.271Z,83.04
2022-09-03T03:11:48.268Z,83.00
2022-09-03T03:12:48.263Z,83.10
2022-09-03T03:13:48.260Z,82.79
2022-09-03T03:14:48.242Z,82.90
2022-09-03T03:15:48.232Z,82.59
2022-09-03T03:16:48.423Z,83.04
2022-09-03T03:17:48.224Z,83.34
2022-09-03T03:18:48.224Z,82.93
2022-09-03T03:19:48.200Z,83.34
2022-09-03T03:20:48.194Z,83.34
2022-09-03T03:21:48.195Z,83.55
2022-09-03T03:22:48.187Z,83.25
2022-09-03T03:23:48.169Z,83.55
2022-09-03T03:24:48.167Z,83.55
2022-09-03T03:25:48.155Z,83.45
2022-09-03T03:26:48.165Z,83.96
2022-09-03T03:27:48.152Z,83.96
2022-09-03T03:28:48.127Z,83.76
2022-09-03T03:29:48.119Z,83.96
2022-09-03T03:30:48.168Z,83.34
2022-09-03T03:31:48.105Z,83.55
2022-09-03T03:32:48.095Z,83.25
2022-09-03T03:33:48.096Z,83.14
2022-09-03T03:34:48.101Z,83.14
2022-09-03T03:35:48.069Z,83.34
2022-09-03T03:36:48.060Z,83.86
2022-09-03T03:37:48.076Z,84.06
2022-09-03T03:38:48.049Z,83.34
2022-09-03T03:39:48.081Z,83.96
2022-09-03T03:40:48.028Z,84.37
2022-09-03T03:41:48.019Z,84.10
2022-09-03T03:42:48.011Z,84.41
2022-09-03T03:43:48.010Z,84.10
2022-09-03T03:44:48.002Z,84.61
2022-09-03T03:45:48.047Z,84.20
2022-09-03T03:46:47.982Z,84.72
2022-09-03T03:47:47.972Z,84.52
2022-09-03T03:48:47.963Z,83.90
2022-09-03T03:49:47.956Z,84.52
2022-09-03T03:50:47.965Z,84.82
2022-09-03T03:51:47.938Z,84.61
2022-09-03T03:52:47.939Z,84.41
2022-09-03T03:53:47.949Z,84.86
2022-09-03T03:54:47.917Z,85.17
2022-09-03T03:55:47.950Z,84.76
2022-09-03T03:56:55.334Z,84.96
2022-09-03T03:57:48.889Z,85.47
2022-09-03T03:58:47.883Z,85.58
2022-09-03T03:59:47.891Z,85.58
2022-09-03T04:00:47.882Z,85.52
2022-09-03T04:01:47.857Z,85.78
2022-09-03T04:02:47.909Z,85.38
2022-09-03T04:03:47.841Z,85.41
2022-09-03T04:04:47.832Z,85.62
2022-09-03T04:05:48.661Z,85.47
2022-09-03T04:06:47.818Z,85.06
2022-09-03T04:07:47.815Z,85.27
2022-09-03T04:08:47.800Z,84.96
2022-09-03T04:09:47.793Z,84.96
2022-09-03T04:10:47.796Z,85.31
2022-09-03T04:11:47.787Z,85.82
2022-09-03T04:12:47.772Z,85.62
2022-09-03T04:13:47.761Z,85.41
2022-09-03T04:14:47.760Z,85.41
2022-09-03T04:15:47.747Z,86.03
2022-09-03T04:16:47.838Z,86.13
2022-09-03T04:17:47.731Z,86.03
2022-09-03T04:18:47.728Z,85.62
2022-09-03T04:19:47.718Z,85.93
2022-09-03T04:20:47.715Z,85.82
2022-09-03T04:21:47.704Z,85.89
2022-09-03T04:22:51.737Z,86.13
2022-09-03T04:23:48.687Z,86.13
2022-09-03T04:24:47.697Z,86.13
2022-09-03T04:25:47.667Z,85.93
2022-09-03T04:26:47.665Z,86.07
2022-09-03T04:27:47.663Z,85.93
2022-09-03T04:28:47.669Z,85.82
2022-09-03T04:29:47.645Z,85.82
2022-09-03T04:30:47.665Z,86.27
2022-09-03T04:31:47.622Z,85.86
2022-09-03T04:32:47.621Z,86.17
2022-09-03T04:33:47.609Z,86.38
2022-09-03T04:34:47.596Z,86.17
2022-09-03T04:35:47.596Z,85.82
2022-09-03T04:36:51.049Z,85.72
2022-09-03T04:37:49.585Z,86.33
2022-09-03T04:38:47.574Z,85.11
2022-09-03T04:39:47.626Z,86.54
2022-09-03T04:40:47.551Z,86.58
2022-09-03T04:41:47.544Z,86.44
2022-09-03T04:42:47.545Z,85.82
2022-09-03T04:43:48.274Z,85.82
2022-09-03T04:44:47.541Z,85.93
2022-09-03T04:45:47.547Z,85.82
2022-09-03T04:46:47.501Z,86.54
2022-09-03T04:47:47.501Z,86.48
2022-09-03T04:48:47.497Z,85.00
2022-09-03T04:49:47.483Z,86.65
2022-09-03T04:50:47.480Z,85.11
2022-09-03T04:51:47.472Z,86.54
2022-09-03T04:52:47.466Z,85.62
2022-09-03T04:53:47.450Z,85.82
2022-09-03T04:54:47.441Z,85.82
2022-09-03T04:55:47.445Z,85.82
2022-09-03T04:56:47.463Z,85.62
2022-09-03T04:57:47.424Z,84.96
2022-09-03T04:58:50.989Z,85.17
2022-09-03T04:59:47.427Z,85.27
2022-09-03T05:00:47.429Z,84.96
2022-09-03T05:01:47.445Z,84.25
2022-09-03T05:02:47.387Z,84.34
2022-09-03T05:03:47.385Z,84.76
2022-09-03T05:04:47.372Z,84.76
2022-09-03T05:05:52.415Z,84.76
2022-09-03T05:06:48.356Z,84.86
2022-09-03T05:07:47.343Z,84.41
2022-09-03T05:08:47.334Z,84.41
2022-09-03T05:09:47.332Z,84.41
2022-09-03T05:10:47.324Z,84.20
2022-09-03T05:11:47.315Z,83.39
2022-09-03T05:12:47.301Z,83.59
2022-09-03T05:13:47.301Z,83.04
2022-09-03T05:14:47.416Z,83.25
2022-09-03T05:15:47.283Z,82.83
2022-09-03T05:16:53.154Z,82.14
2022-09-03T05:17:48.269Z,81.52
2022-09-03T05:18:47.259Z,81.32
2022-09-03T05:19:47.250Z,80.57
2022-09-03T05:20:47.257Z,80.16
2022-09-03T05:21:47.235Z,79.30
2022-09-03T05:22:47.230Z,78.49
2022-09-03T05:23:47.214Z,78.86
2022-09-03T05:24:47.213Z,77.63
2022-09-03T05:25:47.207Z,76.47
2022-09-03T05:26:47.214Z,76.78
2022-09-03T05:27:47.191Z,76.98
2022-09-03T05:28:47.178Z,76.84
2022-09-03T05:29:47.193Z,76.67
2022-09-03T05:30:47.169Z,76.88
2022-09-03T05:31:47.182Z,76.67
2022-09-03T05:32:47.150Z,77.29
2022-09-03T05:33:47.140Z,77.94
2022-09-03T05:34:47.129Z,77.59
2022-09-03T05:35:47.125Z,77.70
2022-09-03T05:36:47.125Z,77.19
2022-09-03T05:37:47.103Z,77.19
2022-09-03T05:38:47.095Z,76.88
2022-09-03T05:39:47.138Z,77.01
2022-09-03T05:40:47.088Z,77.83
2022-09-03T05:41:47.094Z,78.34
2022-09-03T05:42:47.076Z,78.24
2022-09-03T05:43:47.077Z,78.69
2022-09-03T05:44:47.055Z,78.89
2022-09-03T05:45:47.057Z,78.59
2022-09-03T05:46:47.041Z,77.97
2022-09-03T05:47:47.030Z,78.59
2022-09-03T05:48:47.050Z,78.49
2022-09-03T05:49:47.028Z,78.83
2022-09-03T05:50:47.003Z,79.50
2022-09-03T05:51:46.995Z,79.50
2022-09-03T05:52:46.987Z,79.50
2022-09-03T05:53:47.026Z,79.82
2022-09-03T05:54:46.970Z,79.41
2022-09-03T05:55:46.969Z,78.75
2022-09-03T05:56:46.961Z,78.20
2022-09-03T05:57:46.946Z,77.39
2022-09-03T05:58:46.963Z,76.64
2022-09-03T05:59:46.925Z,76.64
2022-09-03T06:00:46.949Z,76.43
2022-09-03T06:01:50.750Z,77.15
2022-09-03T06:02:47.980Z,76.40
2022-09-03T06:03:46.956Z,75.54
2022-09-03T06:04:46.886Z,74.90
2022-09-03T06:05:46.881Z,73.54
2022-09-03T06:06:46.878Z,73.30
2022-09-03T06:07:46.859Z,72.86
2022-09-03T06:08:46.856Z,72.11
2022-09-03T06:09:46.851Z,71.26
2022-09-03T06:10:46.843Z,70.62
2022-09-03T06:11:46.841Z,69.46
2022-09-03T06:12:47.411Z,69.74
2022-09-03T06:13:46.811Z,69.09
2022-09-03T06:14:46.810Z,67.88
2022-09-03T06:15:46.800Z,67.13
2022-09-03T06:16:46.823Z,67.00
2022-09-03T06:17:46.783Z,65.34
2022-09-03T06:18:46.775Z,65.65
2022-09-03T06:19:46.780Z,65.42
2022-09-03T06:20:46.757Z,64.81
2022-09-03T06:21:47.778Z,64.81
2022-09-03T06:22:46.745Z,64.17
2022-09-03T06:23:46.856Z,63.86
2022-09-03T06:24:46.746Z,63.66
2022-09-03T06:25:46.720Z,63.93
2022-09-03T06:26:46.720Z,63.02
2022-09-03T06:27:46.704Z,63.76
2022-09-03T06:28:46.710Z,64.47
2022-09-03T06:29:46.684Z,63.86
2022-09-03T06:30:46.681Z,62.85
2022-09-03T06:31:46.754Z,64.58
2022-09-03T06:32:46.664Z,63.83
2022-09-03T06:33:46.663Z,63.63
2022-09-03T06:34:46.650Z,63.32
2022-09-03T06:35:46.639Z,62.38
2022-09-03T06:36:46.639Z,62.59
2022-09-03T06:37:46.627Z,63.20
2022-09-03T06:38:46.623Z,62.49
2022-09-03T06:39:47.263Z,63.09
2022-09-03T06:40:46.598Z,63.40
2022-09-03T06:41:46.601Z,63.40
2022-09-03T06:42:46.594Z,63.40
2022-09-03T06:43:46.583Z,63.09
2022-09-03T06:44:46.574Z,62.89
2022-09-03T06:45:46.607Z,62.49
2022-09-03T06:46:46.565Z,63.20
2022-09-03T06:47:46.548Z,63.81
2022-09-03T06:48:46.545Z,63.81
2022-09-03T06:49:46.533Z,63.98
2022-09-03T06:50:46.535Z,62.76
2022-09-03T06:51:46.531Z,62.63
2022-09-03T06:52:46.531Z,62.30
2022-09-03T06:53:46.501Z,61.56
2022-09-03T06:54:46.488Z,60.62
2022-09-03T06:55:46.474Z,59.91
2022-09-03T06:56:47.478Z,59.58
2022-09-03T06:57:46.473Z,59.51
2022-09-03T06:58:47.467Z,60.19
2022-09-03T06:59:46.480Z,60.22
2022-09-03T07:00:46.507Z,60.32
2022-09-03T07:01:46.917Z,59.41
2022-09-03T07:02:46.470Z,60.42
2022-09-03T07:03:46.427Z,60.22
2022-09-03T07:04:46.432Z,60.22
2022-09-03T07:05:46.404Z,59.51
2022-09-03T07:06:46.415Z,60.12
2022-09-03T07:07:46.398Z,60.42
2022-09-03T07:08:46.381Z,59.91
2022-09-03T07:09:48.380Z,59.71
2022-09-03T07:10:47.365Z,59.61
2022-09-03T07:11:46.356Z,59.41
2022-09-03T07:12:46.405Z,59.08
2022-09-03T07:13:46.339Z,59.45
2022-09-03T07:14:46.333Z,58.85
2022-09-03T07:15:46.422Z,57.91
2022-09-03T07:16:46.399Z,57.38
2022-09-03T07:17:46.414Z,57.71
2022-09-03T07:18:46.304Z,58.49
2022-09-03T07:19:46.290Z,58.12
2022-09-03T07:20:46.283Z,57.71
2022-09-03T07:21:50.458Z,58.12
2022-09-03T07:22:47.267Z,58.09
2022-09-03T07:23:46.258Z,57.89
2022-09-03T07:24:46.252Z,57.89
2022-09-03T07:25:46.256Z,57.35
2022-09-03T07:26:46.243Z,57.76
2022-09-03T07:27:46.340Z,57.56
2022-09-03T07:28:46.231Z,57.35
2022-09-03T07:29:46.221Z,57.53
2022-09-03T07:30:46.206Z,56.40
2022-09-03T07:31:46.254Z,56.42
2022-09-03T07:32:46.272Z,55.96
2022-09-03T07:33:46.181Z,55.87
2022-09-03T07:34:46.168Z,55.03
2022-09-03T07:35:46.176Z,55.74
2022-09-03T07:36:46.168Z,55.33
2022-09-03T07:37:46.157Z,55.74
2022-09-03T07:38:46.144Z,54.86
2022-09-03T07:39:46.221Z,55.36
2022-09-03T07:40:46.127Z,55.13
2022-09-03T07:41:46.282Z,55.43
2022-09-03T07:42:46.149Z,54.71
2022-09-03T07:43:46.114Z,54.50
2022-09-03T07:44:46.113Z,54.80
2022-09-03T07:45:46.088Z,54.91
2022-09-03T07:46:46.235Z,54.00
2022-09-03T07:47:46.081Z,54.50
2022-09-03T07:48:46.066Z,54.20
2022-09-03T07:49:46.063Z,54.50
2022-09-03T07:50:46.041Z,55.21
2022-09-03T07:51:46.036Z,55.21
2022-09-03T07:52:46.031Z,53.60
2022-09-03T07:53:46.021Z,54.28
2022-09-03T07:54:46.020Z,53.85
2022-09-03T07:55:46.010Z,51.84
2022-09-03T07:56:46.006Z,53.02
2022-09-03T07:57:45.988Z,52.92
2022-09-03T07:58:47.005Z,52.94
2022-09-03T07:59:45.969Z,52.94
2022-09-03T08:00:46.012Z,53.34
2022-09-03T08:01:45.959Z,53.47
2022-09-03T08:02:46.528Z,53.97
2022-09-03T08:03:47.014Z,53.27
2022-09-03T08:04:45.938Z,53.77
2022-09-03T08:05:45.939Z,54.05
2022-09-03T08:06:45.919Z,53.88
2022-09-03T08:07:45.919Z,53.85
2022-09-03T08:08:46.783Z,53.75
2022-09-03T08:09:45.891Z,53.97
2022-09-03T08:10:45.896Z,53.88
2022-09-03T08:11:45.886Z,53.88
2022-09-03T08:12:45.875Z,53.77
2022-09-03T08:13:45.860Z,53.65
2022-09-03T08:14:45.858Z,53.75
2022-09-03T08:15:45.927Z,53.34
2022-09-03T08:16:45.840Z,53.55
2022-09-03T08:17:46.714Z,53.22
2022-09-03T08:18:45.821Z,51.92
2022-09-03T08:19:45.915Z,51.51
2022-09-03T08:20:45.802Z,51.59
2022-09-03T08:21:45.798Z,51.69
2022-09-03T08:22:45.787Z,51.79
2022-09-03T08:23:45.784Z,51.42
2022-09-03T08:24:45.774Z,52.12
2022-09-03T08:25:45.896Z,51.51
2022-09-03T08:26:51.332Z,51.61
2022-09-03T08:27:47.750Z,51.42
2022-09-03T08:28:45.737Z,51.11
2022-09-03T08:29:45.727Z,52.22
2022-09-03T08:30:45.739Z,51.69
2022-09-03T08:31:45.797Z,51.61
2022-09-03T08:32:45.764Z,51.49
2022-09-03T08:33:45.695Z,51.42
2022-09-03T08:34:45.694Z,51.39
2022-09-03T08:35:45.730Z,51.29
2022-09-03T08:36:45.672Z,51.09
2022-09-03T08:37:46.218Z,51.79
2022-09-03T08:38:45.685Z,51.59
2022-09-03T08:39:45.712Z,51.49
2022-09-03T08:40:45.647Z,51.09
2022-09-03T08:41:45.632Z,51.09
2022-09-03T08:42:45.640Z,51.69
2022-09-03T08:43:45.643Z,50.99
2022-09-03T08:44:45.617Z,51.69
2022-09-03T08:45:45.635Z,51.39
2022-09-03T08:46:45.755Z,51.17
2022-09-03T08:47:45.605Z,50.86
2022-09-03T08:48:45.587Z,51.17
2022-09-03T08:49:45.582Z,50.84
2022-09-03T08:50:45.560Z,50.34
2022-09-03T08:51:45.554Z,50.74
2022-09-03T08:52:45.544Z,50.96
2022-09-03T08:53:45.538Z,51.24
2022-09-03T08:54:45.538Z,51.04
2022-09-03T08:55:45.561Z,50.63
2022-09-03T08:56:45.515Z,51.12
2022-09-03T08:57:45.515Z,50.59
2022-09-03T08:58:45.517Z,50.69
2022-09-03T08:59:45.489Z,49.69
2022-09-03T09:00:45.489Z,50.09
2022-09-03T09:01:45.571Z,49.96
2022-09-03T09:02:45.517Z,49.37
2022-09-03T09:03:45.470Z,48.36
2022-09-03T09:04:46.223Z,48.64
2022-09-03T09:05:45.508Z,49.14
2022-09-03T09:06:45.438Z,48.84
2022-09-03T09:07:45.437Z,48.76
2022-09-03T09:08:45.421Z,49.46
2022-09-03T09:09:45.417Z,49.26
2022-09-03T09:10:45.437Z,49.16
2022-09-03T09:11:45.410Z,49.07
2022-09-03T09:12:46.928Z,49.76
2022-09-03T09:13:46.378Z,48.84
2022-09-03T09:14:45.385Z,48.84
2022-09-03T09:15:45.495Z,48.94
2022-09-03T09:16:45.353Z,48.44
2022-09-03T09:17:45.348Z,48.86
2022-09-03T09:18:45.335Z,49.14
2022-09-03T09:19:45.348Z,49.14
2022-09-03T09:20:45.325Z,49.26
2022-09-03T09:21:45.332Z,49.87
2022-09-03T09:22:47.294Z,50.37
2022-09-03T09:23:45.322Z,48.86
2022-09-03T09:24:45.798Z,49.04
2022-09-03T09:25:46.289Z,48.82
2022-09-03T09:26:45.279Z,48.61
2022-09-03T09:27:45.267Z,48.10
2022-09-03T09:28:45.266Z,48.69
2022-09-03T09:29:45.253Z,48.27
2022-09-03T09:30:45.249Z,47.47
2022-09-03T09:31:45.252Z,48.37
2022-09-03T09:32:45.227Z,48.14
2022-09-03T09:33:45.237Z,47.87
2022-09-03T09:34:49.927Z,47.77
2022-09-03T09:35:47.205Z,47.87
2022-09-03T09:36:45.202Z,47.49
2022-09-03T09:37:45.192Z,48.07
2022-09-03T09:38:45.190Z,47.69
2022-09-03T09:39:45.791Z,47.87
2022-09-03T09:40:45.675Z,47.39
2022-09-03T09:41:45.164Z,47.47
2022-09-03T09:42:45.158Z,47.87
2022-09-03T09:43:45.149Z,47.57
2022-09-03T09:44:45.135Z,47.60
2022-09-03T09:45:45.132Z,47.89
2022-09-03T09:46:45.891Z,47.49
2022-09-03T09:47:45.114Z,47.67
2022-09-03T09:48:45.215Z,47.77
2022-09-03T09:49:45.109Z,46.95
2022-09-03T09:50:45.102Z,47.65
2022-09-03T09:51:45.079Z,47.15
2022-09-03T09:52:45.069Z,47.05
2022-09-03T09:53:45.090Z,46.75
2022-09-03T09:54:45.051Z,47.03
2022-09-03T09:55:45.096Z,46.80
2022-09-03T09:56:45.040Z,46.80
2022-09-03T09:57:45.819Z,46.48
2022-09-03T09:58:45.027Z,45.78
2022-09-03T09:59:45.117Z,44.46
2022-09-03T10:00:45.004Z,45.26
2022-09-03T10:01:45.071Z,45.17
2022-09-03T10:02:45.071Z,45.64
2022-09-03T10:03:44.991Z,44.45
2022-09-03T10:04:44.996Z,44.35
2022-09-03T10:05:45.869Z,44.54
2022-09-03T10:06:44.968Z,44.12
2022-09-03T10:07:44.956Z,44.92
2022-09-03T10:08:44.942Z,44.32
2022-09-03T10:09:44.932Z,44.50
2022-09-03T10:10:44.934Z,43.41
2022-09-03T10:11:45.346Z,43.33
2022-09-03T10:12:44.922Z,43.43
2022-09-03T10:13:44.906Z,43.82
2022-09-03T10:14:44.908Z,42.31
2022-09-03T10:15:44.908Z,43.01
2022-09-03T10:16:44.881Z,43.71
2022-09-03T10:17:45.756Z,43.60
2022-09-03T10:18:44.870Z,43.41
2022-09-03T10:19:44.859Z,43.80
2022-09-03T10:20:44.854Z,43.19
2022-09-03T10:21:44.848Z,42.39
2022-09-03T10:22:56.197Z,41.60
2022-09-03T10:23:45.851Z,41.77
2022-09-03T10:24:44.821Z,41.60
2022-09-03T10:25:44.812Z,41.79
2022-09-03T10:26:44.807Z,41.12
2022-09-03T10:27:44.791Z,42.21
2022-09-03T10:28:44.812Z,42.93
2022-09-03T10:29:44.780Z,42.45
2022-09-03T10:30:44.791Z,42.75
2022-09-03T10:31:44.769Z,42.85
2022-09-03T10:32:48.328Z,42.85
2022-09-03T10:33:45.745Z,42.83
2022-09-03T10:34:44.748Z,42.53
2022-09-03T10:35:44.741Z,42.73
2022-09-03T10:36:44.721Z,43.13
2022-09-03T10:37:44.714Z,42.61
2022-09-03T10:38:44.866Z,42.21
2022-09-03T10:39:46.735Z,41.61
2022-09-03T10:40:45.713Z,41.30
2022-09-03T10:41:44.711Z,41.50
2022-09-03T10:42:44.713Z,41.09
2022-09-03T10:43:44.729Z,42.11
2022-09-03T10:44:44.665Z,41.50
2022-09-03T10:45:44.695Z,41.61
2022-09-03T10:46:44.763Z,41.31
2022-09-03T10:47:44.645Z,41.20
2022-09-03T10:48:45.359Z,40.40
2022-09-03T10:49:44.646Z,40.50
2022-09-03T10:50:44.617Z,40.72
2022-09-03T10:51:49.365Z,42.29
2022-09-03T10:52:46.602Z,41.82
2022-09-03T10:53:44.663Z,41.52
2022-09-03T10:54:44.585Z,41.71
2022-09-03T10:55:44.604Z,41.42
2022-09-03T10:56:44.596Z,41.12
2022-09-03T10:57:44.563Z,40.80
2022-09-03T10:58:44.624Z,41.79
2022-09-03T10:59:44.588Z,41.69
2022-09-03T11:00:44.553Z,40.38
2022-09-03T11:01:44.565Z,40.68
2022-09-03T11:02:44.558Z,40.58
2022-09-03T11:03:44.545Z,40.50
2022-09-03T11:04:44.507Z,41.09
2022-09-03T11:05:44.499Z,40.90
2022-09-03T11:06:45.258Z,40.62
2022-09-03T11:07:44.486Z,40.62
2022-09-03T11:08:44.586Z,41.82
2022-09-03T11:09:44.485Z,41.31
2022-09-03T11:10:44.460Z,41.52
2022-09-03T11:11:44.454Z,41.33
2022-09-03T11:12:44.471Z,41.61
2022-09-03T11:13:44.517Z,41.61
2022-09-03T11:14:44.435Z,41.83
2022-09-03T11:15:44.484Z,41.71
2022-09-03T11:16:44.431Z,41.61
2022-09-03T11:17:44.446Z,41.42
2022-09-03T11:18:44.480Z,41.33
2022-09-03T11:19:44.397Z,41.24
2022-09-03T11:20:44.387Z,41.53
2022-09-03T11:21:44.409Z,41.14
2022-09-03T11:22:44.389Z,41.63
2022-09-03T11:23:44.455Z,42.01
2022-09-03T11:24:44.366Z,40.52
2022-09-03T11:25:44.345Z,40.74
2022-09-03T11:26:44.351Z,40.84
2022-09-03T11:27:44.332Z,41.53
2022-09-03T11:28:44.330Z,41.53
2022-09-03T11:29:44.333Z,41.14
2022-09-03T11:30:44.407Z,41.53
2022-09-03T11:31:44.301Z,41.22
2022-09-03T11:32:44.288Z,42.01
2022-09-03T11:33:44.297Z,41.22
2022-09-03T11:34:44.272Z,41.82
2022-09-03T11:35:44.272Z,41.52
2022-09-03T11:36:47.895Z,41.39
2022-09-03T11:37:45.256Z,41.47
2022-09-03T11:38:44.257Z,41.30
2022-09-03T11:39:44.263Z,41.60
2022-09-03T11:40:44.234Z,41.87
2022-09-03T11:41:44.228Z,41.58
2022-09-03T11:42:44.275Z,41.58
2022-09-03T11:43:44.237Z,41.08
2022-09-03T11:44:51.013Z,40.88
2022-09-03T11:45:45.229Z,40.68
2022-09-03T11:46:44.195Z,40.50
2022-09-03T11:47:44.175Z,41.47
2022-09-03T11:48:44.220Z,41.08
2022-09-03T11:49:44.166Z,40.76
2022-09-03T11:50:44.157Z,40.56
2022-09-03T11:51:44.166Z,39.84
2022-09-03T11:52:44.170Z,40.24
2022-09-03T11:53:44.122Z,40.06
2022-09-03T11:54:44.128Z,40.36
2022-09-03T11:55:44.156Z,40.56
2022-09-03T11:56:44.101Z,40.44
2022-09-03T11:57:44.116Z,40.36
2022-09-03T11:58:44.167Z,40.58
2022-09-03T11:59:44.082Z,40.88
2022-09-03T12:00:44.067Z,40.68
2022-09-03T12:01:44.819Z,40.88
2022-09-03T12:02:44.149Z,40.08
2022-09-03T12:03:44.098Z,40.38
2022-09-03T12:04:44.133Z,40.68
2022-09-03T12:05:44.026Z,41.77
2022-09-03T12:06:44.011Z,41.69
2022-09-03T12:07:44.020Z,42.61
2022-09-03T12:08:44.106Z,42.73
2022-09-03T12:09:44.027Z,42.33
2022-09-03T12:10:43.985Z,42.91
2022-09-03T12:11:43.967Z,43.33
2022-09-03T12:12:43.965Z,43.63
2022-09-03T12:13:43.986Z,43.82
2022-09-03T12:14:43.953Z,43.13
2022-09-03T12:15:43.971Z,43.63
2022-09-03T12:16:43.930Z,43.73
2022-09-03T12:17:43.938Z,43.41
2022-09-03T12:18:43.934Z,43.30
2022-09-03T12:19:43.956Z,43.11
2022-09-03T12:20:43.982Z,42.53
2022-09-03T12:21:43.892Z,42.73
2022-09-03T12:22:43.924Z,42.71
2022-09-03T12:23:43.869Z,42.71
2022-09-03T12:24:43.868Z,42.81
2022-09-03T12:25:43.859Z,43.21
2022-09-03T12:26:43.847Z,42.31
2022-09-03T12:27:43.843Z,42.99
2022-09-03T12:28:44.862Z,42.89
2022-09-03T12:29:43.832Z,41.99
2022-09-03T12:30:43.864Z,41.79
2022-09-03T12:31:43.809Z,41.50
2022-09-03T12:32:44.361Z,41.20
2022-09-03T12:33:43.800Z,41.17
2022-09-03T12:34:43.791Z,41.28
2022-09-03T12:35:59.812Z,41.09
2022-09-03T12:36:45.793Z,41.08
2022-09-03T12:39:10.496Z,41.75
2022-09-03T12:41:45.771Z,41.74
2022-09-03T12:42:43.723Z,41.44
2022-09-03T12:43:49.683Z,41.06
2022-09-03T12:44:45.706Z,41.46
2022-09-03T12:46:45.842Z,42.37
2022-09-03T12:47:43.763Z,41.47
2022-09-03T12:48:44.239Z,41.58
2022-09-03T12:49:44.674Z,41.08
2022-09-03T12:50:49.543Z,42.19
2022-09-03T12:51:51.990Z,42.89
2022-09-03T12:52:45.642Z,42.17
2022-09-03T12:53:43.632Z,41.99
2022-09-03T12:54:43.630Z,42.59
2022-09-03T12:55:44.630Z,42.09
2022-09-03T12:56:43.609Z,42.49
2022-09-03T12:57:43.597Z,42.31